Time;durP1;ratioP1;P1;durP2;ratioP2;P2;SDS_P1;SDS_P2;PMS_P1;PMS_P2;Temp;Humidity;BMP_temperature;BMP_pressure;BME280_temperature;BME280_humidity;BME280_pressure;Samples;Min_cycle;Max_cycle;Signal;HPM_P1;HPM_P2
2021/12/07 00:01:42;;;;;;;5.82;3.17;;;;;;;5.37;62.35;100431.31;4933053;28;113634;-67
2021/12/07 00:04:10;;;;;;;6.50;3.40;;;;;;;5.38;62.35;100427.78;4932370;28;114035;-67
2021/12/07 00:06:39;;;;;;;5.72;3.10;;;;;;;5.39;62.18;100426.91;4932273;28;124336;-67
2021/12/07 00:09:09;;;;;;;6.05;3.10;;;;;;;5.40;62.07;100421.56;4933490;28;123182;-67
2021/12/07 00:11:38;;;;;;;5.93;2.67;;;;;;;5.41;62.14;100417.22;4931375;28;114282;-67
2021/12/07 00:14:12;;;;;;;5.03;2.90;;;;;;;5.43;62.10;100425.91;4932288;28;113973;-67
2021/12/07 00:16:42;;;;;;;4.67;2.93;;;;;;;5.44;62.37;100432.84;4930841;28;124003;-67
2021/12/07 00:19:10;;;;;;;5.13;3.00;;;;;;;5.46;62.33;100433.66;4933012;28;123863;-66
2021/12/07 00:21:39;;;;;;;4.70;2.65;;;;;;;5.47;62.36;100438.03;4931437;28;114717;-66
2021/12/07 00:24:08;;;;;;;6.82;3.08;;;;;;;5.49;62.27;100436.22;4933029;28;113997;-67
2021/12/07 00:26:45;;;;;;;5.43;3.22;;;;;;;5.50;62.26;100442.31;4946912;28;124803;-66
2021/12/07 00:29:12;;;;;;;;;;;;;;;5.48;62.39;100434.47;4948151;28;123199;-66
2021/12/07 00:31:51;;;;;;;4.68;2.65;;;;;;;5.48;62.15;100439.72;4930676;28;115427;-66
2021/12/07 00:34:40;;;;;;;5.90;3.10;;;;;;;5.49;62.08;100441.47;4933256;28;114027;-66
2021/12/07 00:37:09;;;;;;;5.60;3.30;;;;;;;5.48;62.19;100444.97;4931587;28;124475;-66
2021/12/07 00:39:37;;;;;;;5.70;3.22;;;;;;;5.49;62.34;100451.97;4929211;28;123914;-66
2021/12/07 00:42:04;;;;;;;5.18;3.25;;;;;;;5.48;62.19;100460.75;4930092;28;113341;-66
2021/12/07 00:44:35;;;;;;;5.68;3.28;;;;;;;5.47;62.17;100459.88;4929704;28;114612;-67
2021/12/07 00:47:05;;;;;;;6.05;3.35;;;;;;;5.49;62.23;100462.47;4927304;28;123216;-66
2021/12/07 00:49:32;;;;;;;5.40;3.33;;;;;;;5.51;62.22;100465.91;4932268;28;122867;-65
2021/12/07 00:51:59;;;;;;;5.47;3.20;;;;;;;5.53;62.22;100463.25;4929572;28;114276;-66
2021/12/07 00:54:27;;;;;;;4.97;3.00;;;;;;;5.54;62.45;100471.09;4929463;28;113304;-66
2021/12/07 00:56:54;;;;;;;7.07;3.65;;;;;;;5.56;62.30;100484.19;4946919;28;123144;-65
2021/12/07 00:59:21;;;;;;;6.45;3.47;;;;;;;5.57;62.17;100481.47;4916787;28;122711;-65
2021/12/07 01:01:48;;;;;;;7.43;3.85;;;;;;;5.56;62.20;100485.03;4928840;28;113049;-65
2021/12/07 01:04:16;;;;;;;9.07;4.07;;;;;;;5.56;62.44;100498.16;4913808;28;113069;-65
2021/12/07 01:06:48;;;;;;;8.85;3.75;;;;;;;5.56;62.48;100494.69;4931800;28;123104;-65
2021/12/07 01:25:55;;;;;;;12.35;6.65;;;;;;;5.50;62.46;100487.84;4930355;28;114903;-65
2021/12/07 01:31:14;;;;;;;14.38;7.85;;;;;;;5.54;62.49;100502.59;4930433;28;124606;-65
2021/12/07 01:42:54;;;;;;;;;;;;;;;5.65;62.62;100526.78;4929714;28;122738;-65
2021/12/07 01:44:47;;;;;;;12.48;7.30;;;;;;;5.69;62.42;100531.94;4930458;28;113276;-65
2021/12/07 01:50:21;;;;;;;14.25;7.35;;;;;;;5.73;62.78;100544.09;4931380;28;124391;-66
2021/12/07 01:53:07;;;;;;;13.38;7.05;;;;;;;5.76;62.78;100550.09;4932519;28;124355;-66
2021/12/07 02:00:52;;;;;;;12.85;6.85;;;;;;;5.85;62.92;100554.22;4929707;28;122863;-66
2021/12/07 02:03:20;;;;;;;13.35;7.20;;;;;;;5.88;62.88;100548.88;4931065;28;124240;-66
2021/12/07 02:05:48;;;;;;;14.02;7.30;;;;;;;5.92;63.11;100555.75;4932035;28;113308;-67
2021/12/07 02:08:16;;;;;;;14.57;7.30;;;;;;;5.96;62.97;100557.41;4915094;28;112971;-67
2021/12/07 02:10:44;;;;;;;13.27;7.28;;;;;;;6.01;62.86;100559.91;4930190;28;122921;-67
2021/12/07 02:15:58;;;;;;;16.00;8.20;;;;;;;6.06;63.05;100563.25;4930729;28;114561;-66
2021/12/07 02:18:28;;;;;;;14.50;7.95;;;;;;;6.08;63.13;100560.56;4928190;28;114097;-66
2021/12/07 02:20:55;;;;;;;12.52;7.18;;;;;;;6.09;63.03;100567.56;4927901;28;123155;-66
2021/12/07 02:23:22;;;;;;;13.40;7.45;;;;;;;6.11;62.92;100576.25;4933425;28;123486;-66
2021/12/07 02:25:49;;;;;;;15.20;7.32;;;;;;;6.12;63.13;100577.97;4928549;28;113162;-66
2021/12/07 02:28:17;;;;;;;12.85;7.28;;;;;;;6.12;62.66;100588.50;4931402;28;113235;-66
2021/12/07 02:30:44;;;;;;;13.48;7.93;;;;;;;6.14;62.67;100612.97;4927670;28;123183;-66
2021/12/07 02:33:12;;;;;;;11.45;7.18;;;;;;;6.08;62.66;100607.91;4930599;28;123552;-66
2021/12/07 02:35:41;;;;;;;13.23;6.57;;;;;;;6.06;62.89;100596.56;4930465;28;113769;-66
2021/12/07 02:38:08;;;;;;;13.80;7.05;;;;;;;6.04;62.91;100592.19;4929058;28;113110;-66
2021/12/07 02:40:37;;;;;;;14.52;7.47;;;;;;;6.04;62.90;100600.09;4927237;28;123316;-66
2021/12/07 02:43:07;;;;;;;14.18;7.80;;;;;;;6.05;63.14;100608.88;4911463;28;122906;-67
2021/12/07 02:45:34;;;;;;;16.25;7.90;;;;;;;6.06;62.78;100614.97;4930255;28;114692;-66
2021/12/07 02:48:01;;;;;;;15.55;7.78;;;;;;;6.08;62.69;100618.41;4929779;28;113461;-66
2021/12/07 02:50:29;;;;;;;13.57;7.55;;;;;;;6.07;62.96;100632.47;4929151;28;123243;-66
2021/12/07 02:52:56;;;;;;;17.10;7.55;;;;;;;6.04;63.12;100631.63;4927591;28;123540;-65
2021/12/07 02:55:23;;;;;;;13.23;7.05;;;;;;;6.07;63.10;100632.47;4928298;28;113858;-66
2021/12/07 02:57:51;;;;;;;12.63;7.13;;;;;;;6.08;62.86;100623.66;4928621;28;113542;-65
2021/12/07 03:00:28;;;;;;;15.95;7.25;;;;;;;6.10;62.91;100627.13;4944039;28;123166;-65
2021/12/07 03:03:04;;;;;;;14.20;7.35;;;;;;;6.10;62.72;100629.75;4929344;28;127022;-66
2021/12/07 03:27:28;;;;;;;;;;;;;;;5.95;63.02;100655.59;4931001;28;113715;-66
2021/12/07 03:29:56;;;;;;;12.07;5.60;;;;;;;5.99;62.78;100657.22;4928699;28;113249;-66
2021/12/07 03:32:24;;;;;;;10.55;4.82;;;;;;;5.99;62.99;100665.09;4930103;28;123943;-65
2021/12/07 03:34:51;;;;;;;16.90;5.03;;;;;;;6.00;62.78;100658.94;4929473;28;124234;-66
2021/12/07 03:37:18;;;;;;;13.60;5.18;;;;;;;6.02;63.11;100672.03;4930139;28;113515;-66
2021/12/07 03:39:46;;;;;;;15.07;5.20;;;;;;;6.03;62.88;100669.38;4927473;28;113683;-66
2021/12/07 03:42:13;;;;;;;10.25;4.97;;;;;;;6.06;63.31;100667.56;4930918;28;125046;-66
2021/12/07 03:44:41;;;;;;;11.63;4.78;;;;;;;6.07;63.04;100675.41;4930066;28;122913;-65
2021/12/07 03:47:09;;;;;;;13.10;3.92;;;;;;;6.10;63.02;100669.19;4930884;28;113512;-66
2021/12/07 03:49:36;;;;;;;10.60;3.70;;;;;;;6.12;63.29;100672.63;4929959;28;112915;-66
2021/12/07 03:52:04;;;;;;;11.45;3.38;;;;;;;6.15;63.19;100688.31;4929505;28;123317;-66
2021/12/07 03:54:32;;;;;;;11.25;3.17;;;;;;;6.17;63.43;100686.50;4929631;28;122870;-66
2021/12/07 03:56:59;;;;;;;8.65;3.20;;;;;;;6.20;63.18;100687.28;4930878;28;115419;-67
2021/12/07 03:59:26;;;;;;;11.52;3.25;;;;;;;6.22;63.47;100697.75;4926914;28;115274;-66
2021/12/07 04:01:53;;;;;;;11.95;3.00;;;;;;;6.25;63.28;100705.53;4928788;28;122999;-66
2021/12/07 04:04:21;;;;;;;6.63;2.53;;;;;;;6.28;63.21;100705.47;4929858;28;123258;-66
2021/12/07 04:06:49;;;;;;;8.13;2.80;;;;;;;6.31;63.35;100715.00;4929875;28;113352;-66
2021/12/07 04:09:16;;;;;;;10.18;2.53;;;;;;;6.33;63.45;100714.09;4930662;28;113092;-66
2021/12/07 04:11:44;;;;;;;9.40;2.50;;;;;;;6.36;63.20;100708.72;4928302;28;123425;-66
2021/12/07 04:14:11;;;;;;;9.38;3.03;;;;;;;6.39;63.60;100708.63;4930227;28;122762;-66
2021/12/07 04:16:38;;;;;;;6.13;2.30;;;;;;;6.42;63.25;100713.81;4930193;28;113700;-66
2021/12/07 04:19:06;;;;;;;9.32;2.00;;;;;;;6.46;63.46;100713.69;4930015;28;113245;-66
2021/12/07 04:21:33;;;;;;;7.82;2.10;;;;;;;6.47;63.54;100710.19;4928363;28;122992;-65
2021/12/07 04:24:00;;;;;;;16.17;2.03;;;;;;;6.49;63.36;100724.16;4929676;28;124156;-66
2021/12/07 04:26:27;;;;;;;12.88;2.45;;;;;;;6.50;63.38;100721.47;4926361;28;114073;-66
2021/12/07 04:28:54;;;;;;;8.88;2.00;;;;;;;6.52;63.52;100727.53;4929350;28;114634;-66
2021/12/07 04:31:21;;;;;;;9.13;2.10;;;;;;;6.53;63.54;100725.78;4928978;28;123811;-66
2021/12/07 04:33:49;;;;;;;7.88;1.60;;;;;;;6.54;63.71;100732.78;4931398;28;123935;-67
2021/12/07 04:36:17;;;;;;;7.18;2.28;;;;;;;6.55;63.55;100734.47;4934413;28;114068;-67
2021/12/07 04:38:44;;;;;;;8.93;1.70;;;;;;;6.57;63.42;100732.66;4934298;28;114162;-67
2021/12/07 04:41:12;;;;;;;7.80;2.35;;;;;;;6.57;63.43;100733.53;4931844;28;123853;-67
2021/12/07 04:43:40;;;;;;;7.18;2.00;;;;;;;6.60;63.47;100732.56;4932384;28;124288;-66
2021/12/07 04:46:22;;;;;;;8.48;1.98;;;;;;;6.61;63.39;100739.53;4930361;28;115334;-66
2021/12/07 05:00:22;;;;;;;9.75;2.00;;;;;;;6.57;63.34;100759.84;4930344;28;114356;-65
2021/12/07 05:02:55;;;;;;;8.95;2.22;;;;;;;6.56;63.07;100757.25;4930571;28;124966;-65
2021/12/07 05:05:28;;;;;;;6.60;2.47;;;;;;;6.56;63.13;100752.84;4932143;28;123583;-65
2021/12/07 05:07:58;;;;;;;10.15;2.55;;;;;;;6.56;63.15;100767.78;4933768;28;114533;-65
2021/12/07 05:10:31;;;;;;;12.93;2.10;;;;;;;6.56;63.11;100775.69;4931006;28;114067;-65
2021/12/07 05:16:04;;;;;;;9.43;1.90;;;;;;;6.54;63.02;100780.13;4929975;28;124944;-65
2021/12/07 05:40:01;;;;;;;7.55;1.90;;;;;;;6.46;63.61;100808.41;4929521;28;115542;-66
2021/12/07 05:42:28;;;;;;;6.30;1.95;;;;;;;6.48;63.34;100811.84;4929340;28;114670;-66
2021/12/07 05:44:56;;;;;;;10.32;2.10;;;;;;;6.50;63.63;100815.31;4930239;28;123984;-66
2021/12/07 05:47:24;;;;;;;6.28;1.95;;;;;;;6.54;63.62;100811.69;4932553;28;124191;-66
2021/12/07 05:49:51;;;;;;;9.93;2.15;;;;;;;6.55;63.45;100816.03;4927889;28;114345;-66
2021/12/07 05:52:18;;;;;;;11.43;2.08;;;;;;;6.57;63.51;100827.38;4930502;28;114013;-66
2021/12/07 05:54:46;;;;;;;5.53;1.70;;;;;;;6.57;63.26;100837.91;4928735;28;124330;-65
2021/12/07 05:57:13;;;;;;;7.55;1.55;;;;;;;6.58;63.35;100839.66;4932470;28;123721;-65
2021/12/07 05:59:40;;;;;;;8.00;1.92;;;;;;;6.57;63.10;100837.91;4931422;28;114056;-66
2021/12/07 06:02:08;;;;;;;5.70;1.80;;;;;;;6.56;63.45;100852.00;4928552;28;113123;-66
2021/12/07 06:04:35;;;;;;;5.28;1.60;;;;;;;6.56;63.13;100857.25;4930280;28;123846;-66
2021/12/07 06:07:04;;;;;;;6.53;1.55;;;;;;;6.53;63.38;100859.94;4930947;28;123648;-66
2021/12/07 06:09:31;;;;;;;6.05;1.77;;;;;;;6.53;63.04;100873.09;4927041;28;114125;-65
2021/12/07 06:11:58;;;;;;;5.68;1.80;;;;;;;6.49;62.98;100867.06;4931403;28;114206;-65
2021/12/07 06:14:32;;;;;;;12.18;2.13;;;;;;;6.47;63.23;100879.41;4928084;28;124751;-66
2021/12/07 06:16:59;;;;;;;8.10;1.75;;;;;;;6.47;63.43;100883.81;4930395;28;123714;-65
2021/12/07 06:19:27;;;;;;;9.32;1.95;;;;;;;6.46;63.10;100880.34;4931142;28;114139;-66
2021/12/07 06:21:54;;;;;;;8.52;1.75;;;;;;;6.45;63.34;100869.84;4931319;28;114610;-66
2021/12/07 06:24:21;;;;;;;6.00;1.70;;;;;;;6.46;63.30;100882.06;4929929;28;123847;-66
2021/12/07 06:26:49;;;;;;;7.45;1.70;;;;;;;6.43;63.34;100872.50;4929448;28;123829;-65
2021/12/07 06:29:16;;;;;;;7.55;1.75;;;;;;;6.43;63.39;100868.09;4929521;28;115499;-66
2021/12/07 06:31:43;;;;;;;8.57;1.80;;;;;;;6.41;63.28;100869.91;4928864;28;114931;-65
2021/12/07 06:34:11;;;;;;;5.45;1.70;;;;;;;6.41;63.27;100864.66;4930653;28;125035;-65
2021/12/07 06:36:38;;;;;;;10.55;1.90;;;;;;;6.41;63.19;100859.38;4931297;28;123550;-65
2021/12/07 06:39:07;;;;;;;6.72;1.63;;;;;;;6.41;63.15;100864.66;4928346;28;113479;-65
2021/12/07 06:41:34;;;;;;;9.50;2.25;;;;;;;6.40;63.43;100865.56;4930595;28;114070;-65
2021/12/07 06:44:03;;;;;;;10.50;2.38;;;;;;;6.40;63.12;100847.16;4928868;28;123747;-65
2021/12/07 06:46:30;;;;;;;12.85;2.55;;;;;;;6.39;63.40;100866.47;4930463;28;123975;-64
2021/12/07 06:48:57;;;;;;;9.57;2.20;;;;;;;6.38;63.12;100864.72;4930241;28;112990;-65
2021/12/07 06:51:25;;;;;;;11.43;2.35;;;;;;;6.37;63.17;100857.75;4930869;28;113656;-65
2021/12/07 06:53:52;;;;;;;7.97;2.38;;;;;;;6.36;63.09;100866.53;4930011;28;124241;-65
2021/12/07 06:56:19;;;;;;;7.93;2.05;;;;;;;6.35;63.16;100875.34;4932095;28;125256;-65
2021/12/07 06:58:46;;;;;;;11.07;2.50;;;;;;;6.34;63.15;100873.59;4928510;28;114547;-65
2021/12/07 07:01:14;;;;;;;8.55;2.60;;;;;;;6.34;63.17;100878.88;4930188;28;113750;-64
2021/12/07 07:03:43;;;;;;;7.13;2.38;;;;;;;6.33;63.20;100890.31;4931025;28;123852;-65
2021/12/07 07:06:10;;;;;;;10.63;2.83;;;;;;;6.32;63.09;100885.09;4928029;28;125209;-65
2021/12/07 07:08:37;;;;;;;9.85;3.08;;;;;;;6.31;63.47;100889.50;4932055;28;114388;-64
2021/12/07 07:11:05;;;;;;;12.55;2.80;;;;;;;6.32;63.10;100891.19;4929154;28;114759;-64
2021/12/07 07:13:33;;;;;;;9.23;2.80;;;;;;;6.32;63.24;100899.09;4928763;28;124834;-65
2021/12/07 07:16:01;;;;;;;10.38;2.88;;;;;;;6.31;63.21;100894.75;4926837;28;122942;-64
2021/12/07 07:18:28;;;;;;;9.93;3.22;;;;;;;6.29;62.97;100896.56;4926092;28;114137;-65
2021/12/07 07:20:55;;;;;;;7.80;2.83;;;;;;;6.28;63.09;100900.09;4929433;28;115835;-65
2021/12/07 07:23:23;;;;;;;9.93;3.03;;;;;;;6.26;63.18;100907.16;4930379;28;123820;-65
2021/12/07 07:25:55;;;;;;;11.82;3.35;;;;;;;6.24;63.34;100908.97;4928335;28;124507;-65
2021/12/07 07:28:28;;;;;;;10.90;3.00;;;;;;;6.23;63.41;100907.22;4926455;28;115079;-65
2021/12/07 07:30:56;;;;;;;8.50;3.40;;;;;;;6.20;63.20;100897.66;4928474;28;113011;-65
2021/12/07 07:33:24;;;;;;;11.00;3.10;;;;;;;6.20;63.18;100896.81;4930263;28;124367;-65
2021/12/07 07:35:52;;;;;;;9.23;3.47;;;;;;;6.18;63.20;100898.63;4913084;28;122809;-65
2021/12/07 07:38:20;;;;;;;10.95;3.42;;;;;;;6.17;63.12;100899.50;4927788;28;114305;-65
2021/12/07 07:40:48;;;;;;;10.57;2.95;;;;;;;6.14;63.36;100907.47;4928558;28;115893;-65
2021/12/07 07:43:19;;;;;;;14.75;3.47;;;;;;;6.14;63.04;100907.47;4928986;28;123156;-64
2021/12/07 07:45:53;;;;;;;9.15;3.80;;;;;;;6.12;63.23;100904.91;4930155;28;126662;-65
2021/12/07 07:48:22;;;;;;;9.43;3.13;;;;;;;6.12;63.21;100914.53;4928822;28;114198;-65
2021/12/07 07:50:51;;;;;;;11.52;3.63;;;;;;;6.12;63.35;100917.16;4929627;28;113248;-65
2021/12/07 07:53:19;;;;;;;10.88;3.67;;;;;;;6.11;63.20;100918.06;4931088;28;124078;-64
2021/12/07 07:55:50;;;;;;;11.20;3.30;;;;;;;6.10;63.26;100916.34;4927991;28;124641;-65
2021/12/07 07:58:18;;;;;;;16.95;3.75;;;;;;;6.09;63.24;100919.88;4931221;28;114819;-64
2021/12/07 08:00:47;;;;;;;11.88;3.45;;;;;;;6.10;63.47;100918.97;4929235;28;113127;-65
2021/12/07 08:03:14;;;;;;;14.07;3.65;;;;;;;6.08;63.30;100912.88;4930462;28;123856;-64
2021/12/07 08:05:42;;;;;;;11.50;3.25;;;;;;;6.10;63.18;100908.44;4931747;28;123369;-65
2021/12/07 08:08:12;;;;;;;12.93;3.85;;;;;;;6.10;63.39;100911.06;4932488;28;114328;-65
2021/12/07 08:10:40;;;;;;;8.32;3.38;;;;;;;6.11;63.43;100891.78;4930764;28;115137;-64
2021/12/07 08:13:08;;;;;;;8.90;3.03;;;;;;;6.10;63.42;100896.16;4934513;28;125319;-65
2021/12/07 08:15:41;;;;;;;10.73;3.63;;;;;;;6.11;63.34;100897.03;4932604;28;123950;-65
2021/12/07 08:18:09;;;;;;;12.27;3.53;;;;;;;6.13;63.44;100895.22;4933671;28;114860;-65
2021/12/07 08:20:38;;;;;;;11.73;3.20;;;;;;;6.13;63.50;100895.22;4932955;28;114574;-65
2021/12/07 08:23:06;;;;;;;13.05;3.35;;;;;;;6.16;63.48;100905.66;4935105;28;123800;-65
2021/12/07 08:25:40;;;;;;;10.27;3.10;;;;;;;6.18;63.41;100898.63;4942447;28;124611;-65
2021/12/07 08:28:08;;;;;;;15.77;3.47;;;;;;;6.19;63.50;100902.94;4944218;28;114757;-65
2021/12/07 08:30:36;;;;;;;13.98;4.13;;;;;;;6.22;63.73;100905.50;4942042;28;114384;-65
2021/12/07 08:33:04;;;;;;;12.15;2.85;;;;;;;6.23;63.53;100908.13;4935947;28;124619;-65
2021/12/07 08:35:31;;;;;;;7.63;3.08;;;;;;;6.24;63.82;100914.22;4934100;28;124057;-65
2021/12/07 08:37:59;;;;;;;10.25;3.08;;;;;;;6.25;63.88;100915.94;4932164;28;114618;-65
2021/12/07 08:40:30;;;;;;;13.45;3.85;;;;;;;6.28;63.58;100904.50;4934236;28;114753;-64
2021/12/07 08:42:58;;;;;;;11.57;3.40;;;;;;;6.29;63.54;100912.34;4933369;28;124475;-64
2021/12/07 08:45:27;;;;;;;10.65;3.42;;;;;;;6.31;63.52;100899.13;4933279;28;124047;-64
2021/12/07 08:47:55;;;;;;;10.02;4.03;;;;;;;6.33;63.77;100913.97;4930736;28;114306;-64
2021/12/07 08:50:26;;;;;;;12.43;3.25;;;;;;;6.36;63.54;100919.16;4933974;28;113977;-64
2021/12/07 08:52:56;;;;;;;11.68;3.20;;;;;;;6.37;63.68;100920.88;4934302;28;123999;-64
2021/12/07 09:00:55;;;;;;;14.30;3.20;;;;;;;6.48;63.59;100927.63;4933590;28;114729;-64
2021/12/07 09:03:23;;;;;;;8.82;3.10;;;;;;;6.51;63.82;100932.81;4934218;28;124748;-65
2021/12/07 09:05:50;;;;;;;9.88;2.83;;;;;;;6.52;64.11;100924.88;4932393;28;123900;-65
2021/12/07 09:08:19;;;;;;;13.30;3.33;;;;;;;6.55;63.90;100918.66;4934577;28;114253;-65
2021/12/07 09:10:46;;;;;;;13.07;3.13;;;;;;;6.57;64.02;100916.84;4931072;28;113887;-64
2021/12/07 09:13:13;;;;;;;11.38;3.08;;;;;;;6.58;63.63;100923.84;4933000;28;123245;-65
2021/12/07 09:15:40;;;;;;;12.90;3.03;;;;;;;6.58;63.54;100918.59;4933380;28;123953;-65
2021/12/07 09:18:08;;;;;;;8.50;3.13;;;;;;;6.60;63.56;100916.78;4930737;28;114181;-64
2021/12/07 09:20:36;;;;;;;8.85;2.80;;;;;;;6.63;63.69;100914.94;4932208;28;113768;-65
2021/12/07 09:23:04;;;;;;;13.98;2.97;;;;;;;6.66;63.58;100911.34;4933514;28;123966;-65
2021/12/07 09:25:32;;;;;;;11.35;2.90;;;;;;;6.70;63.98;100918.22;4933160;28;123795;-64
2021/12/07 09:27:59;;;;;;;9.13;2.65;;;;;;;6.74;64.14;100909.38;4933718;28;114976;-65
2021/12/07 09:30:26;;;;;;;7.10;2.63;;;;;;;6.80;64.06;100914.47;4933032;28;114360;-64
2021/12/07 09:32:54;;;;;;;11.05;2.88;;;;;;;6.86;63.78;100907.31;4933073;28;124092;-64
2021/12/07 09:35:22;;;;;;;11.32;3.25;;;;;;;6.90;63.65;100908.94;4932090;28;124705;-62
2021/12/07 09:37:52;;;;;;;11.93;3.00;;;;;;;6.94;63.96;100915.81;4932471;28;114128;-63
2021/12/07 09:40:23;;;;;;;8.85;3.03;;;;;;;6.97;64.10;100927.13;4930434;28;113933;-63
2021/12/07 09:42:51;;;;;;;10.88;2.67;;;;;;;7.01;63.90;100930.56;4933198;28;123874;-63
2021/12/07 09:45:19;;;;;;;7.97;2.55;;;;;;;7.05;63.95;100926.06;4927854;28;123709;-63
2021/12/07 09:47:47;;;;;;;7.05;2.53;;;;;;;7.10;63.90;100922.38;4931127;28;113950;-63
2021/12/07 09:50:18;;;;;;;9.68;2.75;;;;;;;7.14;64.06;100918.75;4930310;28;114720;-63
2021/12/07 09:52:46;;;;;;;8.32;2.83;;;;;;;7.19;63.63;100916.81;4932152;28;124609;-64
2021/12/07 09:55:14;;;;;;;6.53;2.40;;;;;;;7.21;63.98;100915.03;4932488;28;124270;-64
2021/12/07 09:57:42;;;;;;;9.68;2.40;;;;;;;7.25;63.55;100914.91;4930275;28;114022;-63
2021/12/07 10:00:13;;;;;;;9.35;2.33;;;;;;;7.27;63.92;100918.38;4927650;28;114305;-63
2021/12/07 10:02:45;;;;;;;7.90;2.40;;;;;;;7.30;63.84;100924.41;4931035;28;124357;-63
2021/12/07 10:05:14;;;;;;;6.30;2.40;;;;;;;7.34;63.77;100925.19;4932149;28;123924;-63
2021/12/07 10:07:41;;;;;;;9.38;2.58;;;;;;;7.37;63.97;100919.81;4932752;28;116029;-63
2021/12/07 10:10:17;;;;;;;7.75;2.72;;;;;;;7.40;63.67;100909.16;4925292;28;113850;-63
2021/12/07 10:12:45;;;;;;;7.65;2.78;;;;;;;7.46;63.62;100901.09;4920545;28;124663;-63
2021/12/07 10:15:12;;;;;;;10.98;2.60;;;;;;;7.50;63.88;100905.34;4931484;28;124743;-63
2021/12/07 10:17:42;;;;;;;8.07;3.13;;;;;;;7.55;63.70;100911.34;4932791;28;115069;-63
2021/12/07 10:20:33;;;;;;;8.10;2.63;;;;;;;7.61;64.08;100907.66;4932429;28;114639;-62
2021/12/07 10:23:13;;;;;;;7.22;2.80;;;;;;;7.67;63.95;100906.59;4932508;28;124018;-63
2021/12/07 10:25:46;;;;;;;7.32;2.67;;;;;;;7.71;63.67;100901.16;4931714;28;124202;-63
2021/12/07 10:28:36;;;;;;;11.15;2.50;;;;;;;7.77;63.91;100897.47;4927142;28;114108;-62
2021/12/07 10:31:03;;;;;;;12.27;2.85;;;;;;;7.83;63.89;100891.16;4923910;28;114293;-62
2021/12/07 10:33:42;;;;;;;8.80;2.95;;;;;;;7.86;64.02;100891.91;4919630;28;124017;-62
2021/12/07 10:36:19;;;;;;;10.07;2.90;;;;;;;7.92;63.91;100885.56;4928687;28;122495;-63
2021/12/07 10:39:06;;;;;;;9.07;2.58;;;;;;;7.97;63.83;100879.22;4927531;28;114273;-62
2021/12/07 10:41:44;;;;;;;7.10;2.92;;;;;;;8.02;63.88;100891.38;4923263;28;115234;-64
2021/12/07 10:44:15;;;;;;;8.35;3.00;;;;;;;8.06;63.67;100887.72;4929528;28;124058;-64
2021/12/07 10:46:52;;;;;;;8.25;2.90;;;;;;;8.10;63.87;100884.06;4929078;28;124212;-63
2021/12/07 10:49:21;;;;;;;13.27;3.10;;;;;;;8.13;63.32;100869.00;4936869;28;113504;-63
2021/12/07 10:52:11;;;;;;;7.90;2.80;;;;;;;8.18;63.48;100871.50;4930889;28;113811;-64
2021/12/07 10:54:49;;;;;;;10.27;3.15;;;;;;;8.22;63.73;100873.09;4930185;28;124069;-63
2021/12/07 10:57:21;;;;;;;10.73;2.67;;;;;;;8.25;63.37;100862.47;4929699;28;124629;-62
2021/12/07 10:59:53;;;;;;;7.53;2.47;;;;;;;8.28;63.27;100857.06;4928458;28;114277;-62
2021/12/07 11:02:21;;;;;;;8.48;2.40;;;;;;;8.32;63.45;100853.38;4931110;28;114357;-64
2021/12/07 11:04:49;;;;;;;8.95;2.50;;;;;;;8.36;63.48;100844.47;4929153;28;123826;-62
2021/12/07 11:07:18;;;;;;;9.90;2.55;;;;;;;8.41;63.69;100840.78;4932754;28;122758;-64
2021/12/07 11:09:56;;;;;;;10.23;2.70;;;;;;;8.45;63.35;100824.81;4929434;28;114344;-62
2021/12/07 11:12:26;;;;;;;9.05;2.67;;;;;;;8.51;63.58;100831.66;4931990;28;113747;-63
2021/12/07 11:14:58;;;;;;;7.43;2.45;;;;;;;8.56;63.25;100819.16;4929078;28;122887;-62
2021/12/07 11:17:33;;;;;;;8.90;2.20;;;;;;;8.61;63.41;100806.66;4930535;28;123807;-62
2021/12/07 11:20:03;;;;;;;8.50;2.70;;;;;;;8.67;63.28;100806.41;4929254;28;114643;-63
2021/12/07 11:22:34;;;;;;;10.88;2.50;;;;;;;8.73;63.11;100795.59;4932579;28;114094;-62
2021/12/07 11:25:03;;;;;;;11.02;2.33;;;;;;;8.80;63.43;100784.78;4932204;28;124406;-63
2021/12/07 11:30:19;;;;;;;9.95;2.70;;;;;;;8.89;63.41;100790.59;4928151;28;115211;-63
2021/12/07 11:32:55;;;;;;;8.95;2.20;;;;;;;8.95;63.17;100789.50;4933459;28;115451;-63
2021/12/07 11:35:44;;;;;;;12.02;2.38;;;;;;;9.01;63.05;100793.69;4930873;28;124692;-63
2021/12/07 11:38:27;;;;;;;5.18;2.00;;;;;;;9.05;62.90;100790.84;4929592;28;123876;-63
2021/12/07 11:41:13;;;;;;;8.00;2.15;;;;;;;9.11;62.97;100781.81;4933301;28;114222;-62
2021/12/07 11:43:57;;;;;;;8.95;2.70;;;;;;;9.16;62.94;100793.94;4932958;28;113807;-64
2021/12/07 11:46:28;;;;;;;9.35;2.38;;;;;;;9.22;62.86;100791.97;4932869;28;124140;-63
2021/12/07 11:49:12;;;;;;;7.28;2.22;;;;;;;9.27;62.60;100801.44;4918648;28;122808;-63
2021/12/07 11:51:41;;;;;;;9.15;2.05;;;;;;;9.32;62.95;100793.31;4933663;28;114265;-62
2021/12/07 11:54:11;;;;;;;6.75;2.10;;;;;;;9.36;62.74;100789.59;4934659;28;112926;-63
2021/12/07 11:56:40;;;;;;;4.47;1.63;;;;;;;9.40;62.58;100780.66;4931249;28;125026;-62
2021/12/07 11:59:09;;;;;;;8.80;2.10;;;;;;;9.44;62.64;100776.97;4927749;28;123592;-62
2021/12/07 12:01:45;;;;;;;7.25;2.15;;;;;;;9.46;62.39;100777.75;4931894;28;114042;-63
2021/12/07 12:04:15;;;;;;;7.10;2.35;;;;;;;9.49;62.36;100769.72;4932506;28;114079;-61
2021/12/07 12:06:46;;;;;;;8.00;2.28;;;;;;;9.52;62.29;100764.28;4930504;28;124486;-61
2021/12/07 12:09:15;;;;;;;7.57;2.20;;;;;;;9.58;62.16;100759.66;4930594;28;123839;-62
2021/12/07 12:12:06;;;;;;;6.43;2.20;;;;;;;9.61;62.23;100759.53;4931075;28;114387;-61
2021/12/07 12:14:40;;;;;;;6.57;1.98;;;;;;;9.64;61.91;100762.03;4933234;28;114395;-61
2021/12/07 12:17:40;;;;;;;9.37;2.30;;;;;;;9.66;62.15;100749.59;4930454;28;123772;-61
2021/12/07 12:20:26;;;;;;;5.35;2.13;;;;;;;9.69;62.01;100746.84;4933344;28;124026;-61
2021/12/07 12:23:17;;;;;;;7.88;2.50;;;;;;;9.71;61.88;100742.34;4934015;28;115323;-61
2021/12/07 12:26:04;;;;;;;7.30;2.35;;;;;;;9.75;61.90;100743.91;4931543;28;114939;-61
2021/12/07 12:28:53;;;;;;;5.65;2.50;;;;;;;9.77;61.44;100736.78;4930193;28;124378;-61
2021/12/07 12:31:45;;;;;;;6.60;2.42;;;;;;;9.79;61.49;100729.63;4931430;28;124364;-61
2021/12/07 12:34:18;;;;;;;12.20;3.10;;;;;;;9.81;61.26;100727.78;4931226;28;114035;-62
2021/12/07 12:37:07;;;;;;;10.55;2.70;;;;;;;9.80;61.41;100719.94;4931117;28;114290;-61
2021/12/07 12:39:53;;;;;;;9.07;2.38;;;;;;;9.79;61.35;100719.06;4932935;28;123921;-61
2021/12/07 12:42:36;;;;;;;5.25;2.00;;;;;;;9.77;60.96;100715.63;4933891;28;123963;-61
2021/12/07 12:45:28;;;;;;;7.15;2.17;;;;;;;9.75;61.23;100706.91;4932427;28;114343;-63
2021/12/07 12:48:02;;;;;;;7.50;2.22;;;;;;;9.75;60.85;100706.91;4934540;28;114021;-62
2021/12/07 12:50:32;;;;;;;11.63;2.60;;;;;;;9.75;60.80;100701.59;4929328;28;124945;-62
2021/12/07 12:53:05;;;;;;;6.28;2.10;;;;;;;9.77;60.83;100693.59;4932761;28;124282;-62
2021/12/07 12:55:35;;;;;;;6.50;2.28;;;;;;;9.77;60.81;100686.53;4931938;28;114202;-62
2021/12/07 12:58:10;;;;;;;8.30;2.22;;;;;;;9.77;60.76;100689.16;4933635;28;113528;-62
2021/12/07 13:01:09;;;;;;;10.50;1.95;;;;;;;9.77;60.79;100683.03;4930583;28;123927;-62
2021/12/07 13:03:40;;;;;;;8.77;2.10;;;;;;;9.75;60.63;100681.28;4931312;28;123762;-62
2021/12/07 13:06:42;;;;;;;10.63;2.25;;;;;;;9.74;61.05;100670.81;4930678;28;114081;-62
2021/12/07 13:09:22;;;;;;;8.25;2.13;;;;;;;9.73;60.68;100661.16;4929687;28;114276;-62
2021/12/07 13:12:18;;;;;;;6.22;2.13;;;;;;;9.72;60.51;100649.72;4930713;28;124305;-62
2021/12/07 13:15:07;;;;;;;14.30;2.42;;;;;;;9.71;60.66;100641.84;4931108;28;123766;-62
2021/12/07 13:17:40;;;;;;;4.60;2.20;;;;;;;9.69;60.87;100630.47;4944640;28;114259;-62
2021/12/07 13:20:27;;;;;;;10.30;2.10;;;;;;;9.68;60.83;100619.06;4930957;28;114760;-62
2021/12/07 13:23:10;;;;;;;3.65;1.90;;;;;;;9.66;60.58;100604.16;4932981;28;124300;-61
2021/12/07 13:25:42;;;;;;;8.25;2.17;;;;;;;9.66;60.47;100606.81;4933758;28;123947;-62